sensor_id;sensor_type;location;lat;lon;timestamp;P1;durP1;ratioP1;P2;durP2;ratioP2
10991;SDS011;5549;47.028;15.514;2022-08-25T00:00:48;4.13;;;3.80;;
10991;SDS011;5549;47.028;15.514;2022-08-25T00:03:17;3.57;;;3.30;;
10991;SDS011;5549;47.028;15.514;2022-08-25T00:05:46;3.80;;;3.40;;
10991;SDS011;5549;47.028;15.514;2022-08-25T00:08:13;6.20;;;3.53;;
10991;SDS011;5549;47.028;15.514;2022-08-25T00:10:43;3.47;;;3.20;;
10991;SDS011;5549;47.028;15.514;2022-08-25T00:13:13;4.90;;;3.80;;
10991;SDS011;5549;47.028;15.514;2022-08-25T00:15:43;3.90;;;3.37;;
10991;SDS011;5549;47.028;15.514;2022-08-25T00:18:13;4.00;;;3.50;;
10991;SDS011;5549;47.028;15.514;2022-08-25T00:20:43;3.93;;;3.63;;
10991;SDS011;5549;47.028;15.514;2022-08-25T00:23:13;3.60;;;3.33;;
10991;SDS011;5549;47.028;15.514;2022-08-25T00:25:41;3.60;;;3.30;;
10991;SDS011;5549;47.028;15.514;2022-08-25T00:28:08;3.97;;;3.60;;
10991;SDS011;5549;47.028;15.514;2022-08-25T00:30:37;4.20;;;3.80;;
10991;SDS011;5549;47.028;15.514;2022-08-25T00:33:05;3.77;;;3.47;;
10991;SDS011;5549;47.028;15.514;2022-08-25T00:35:33;4.87;;;3.83;;
10991;SDS011;5549;47.028;15.514;2022-08-25T00:38:01;3.97;;;3.67;;
10991;SDS011;5549;47.028;15.514;2022-08-25T00:40:32;3.20;;;3.00;;
10991;SDS011;5549;47.028;15.514;2022-08-25T00:43:05;4.20;;;3.80;;
10991;SDS011;5549;47.028;15.514;2022-08-25T00:45:36;3.87;;;3.57;;
10991;SDS011;5549;47.028;15.514;2022-08-25T00:48:05;3.73;;;3.43;;
10991;SDS011;5549;47.028;15.514;2022-08-25T00:50:35;3.90;;;3.60;;
10991;SDS011;5549;47.028;15.514;2022-08-25T00:53:05;3.70;;;3.40;;
10991;SDS011;5549;47.028;15.514;2022-08-25T00:55:36;7.67;;;4.17;;
10991;SDS011;5549;47.028;15.514;2022-08-25T00:58:06;4.37;;;3.43;;
10991;SDS011;5549;47.028;15.514;2022-08-25T01:00:42;4.90;;;3.33;;
10991;SDS011;5549;47.028;15.514;2022-08-25T01:03:14;3.87;;;3.30;;
10991;SDS011;5549;47.028;15.514;2022-08-25T01:05:46;3.87;;;3.57;;
10991;SDS011;5549;47.028;15.514;2022-08-25T01:08:16;3.37;;;3.17;;
10991;SDS011;5549;47.028;15.514;2022-08-25T01:10:47;3.60;;;3.30;;
10991;SDS011;5549;47.028;15.514;2022-08-25T01:13:18;3.80;;;3.50;;
10991;SDS011;5549;47.028;15.514;2022-08-25T01:15:52;4.07;;;3.70;;
10991;SDS011;5549;47.028;15.514;2022-08-25T01:18:25;3.77;;;3.57;;
10991;SDS011;5549;47.028;15.514;2022-08-25T01:20:58;3.63;;;3.33;;
10991;SDS011;5549;47.028;15.514;2022-08-25T01:23:29;4.13;;;3.50;;
10991;SDS011;5549;47.028;15.514;2022-08-25T01:26:01;3.97;;;3.57;;
10991;SDS011;5549;47.028;15.514;2022-08-25T01:28:34;3.90;;;3.50;;
10991;SDS011;5549;47.028;15.514;2022-08-25T01:31:03;3.43;;;3.23;;
10991;SDS011;5549;47.028;15.514;2022-08-25T01:33:34;5.83;;;3.77;;
10991;SDS011;5549;47.028;15.514;2022-08-25T01:36:03;3.53;;;3.17;;
10991;SDS011;5549;47.028;15.514;2022-08-25T01:38:34;3.83;;;3.13;;
10991;SDS011;5549;47.028;15.514;2022-08-25T01:41:02;3.60;;;3.27;;
10991;SDS011;5549;47.028;15.514;2022-08-25T01:43:34;3.83;;;3.53;;
10991;SDS011;5549;47.028;15.514;2022-08-25T01:46:07;3.87;;;3.47;;
10991;SDS011;5549;47.028;15.514;2022-08-25T01:48:37;3.50;;;3.20;;
10991;SDS011;5549;47.028;15.514;2022-08-25T01:51:06;4.10;;;3.80;;
10991;SDS011;5549;47.028;15.514;2022-08-25T01:53:34;3.73;;;3.43;;
10991;SDS011;5549;47.028;15.514;2022-08-25T01:56:09;6.77;;;3.50;;
10991;SDS011;5549;47.028;15.514;2022-08-25T01:58:40;3.60;;;3.37;;
10991;SDS011;5549;47.028;15.514;2022-08-25T02:01:14;5.70;;;3.50;;
10991;SDS011;5549;47.028;15.514;2022-08-25T02:03:48;3.80;;;3.50;;
10991;SDS011;5549;47.028;15.514;2022-08-25T02:06:22;3.47;;;3.27;;
10991;SDS011;5549;47.028;15.514;2022-08-25T02:08:57;3.30;;;3.00;;
10991;SDS011;5549;47.028;15.514;2022-08-25T02:11:27;4.80;;;3.33;;
10991;SDS011;5549;47.028;15.514;2022-08-25T02:13:55;6.27;;;3.40;;
10991;SDS011;5549;47.028;15.514;2022-08-25T02:16:29;3.80;;;3.40;;
10991;SDS011;5549;47.028;15.514;2022-08-25T02:19:02;3.63;;;3.30;;
10991;SDS011;5549;47.028;15.514;2022-08-25T02:21:32;4.13;;;3.60;;
10991;SDS011;5549;47.028;15.514;2022-08-25T02:24:01;3.10;;;2.90;;
10991;SDS011;5549;47.028;15.514;2022-08-25T02:26:29;3.87;;;3.47;;
10991;SDS011;5549;47.028;15.514;2022-08-25T02:28:59;3.47;;;3.17;;
10991;SDS011;5549;47.028;15.514;2022-08-25T02:31:27;3.93;;;3.63;;
10991;SDS011;5549;47.028;15.514;2022-08-25T02:33:55;3.80;;;3.50;;
10991;SDS011;5549;47.028;15.514;2022-08-25T02:36:25;3.87;;;3.50;;
10991;SDS011;5549;47.028;15.514;2022-08-25T02:38:54;3.70;;;3.40;;
10991;SDS011;5549;47.028;15.514;2022-08-25T02:41:22;4.60;;;3.30;;
10991;SDS011;5549;47.028;15.514;2022-08-25T02:43:51;3.70;;;3.40;;
10991;SDS011;5549;47.028;15.514;2022-08-25T02:46:19;3.83;;;3.53;;
10991;SDS011;5549;47.028;15.514;2022-08-25T02:48:50;4.20;;;3.47;;
10991;SDS011;5549;47.028;15.514;2022-08-25T02:51:19;3.33;;;3.03;;
10991;SDS011;5549;47.028;15.514;2022-08-25T02:53:49;3.47;;;3.27;;
10991;SDS011;5549;47.028;15.514;2022-08-25T02:56:18;3.70;;;3.20;;
10991;SDS011;5549;47.028;15.514;2022-08-25T02:58:46;3.37;;;3.17;;
10991;SDS011;5549;47.028;15.514;2022-08-25T03:01:15;3.37;;;3.17;;
10991;SDS011;5549;47.028;15.514;2022-08-25T03:03:44;3.50;;;3.23;;
10991;SDS011;5549;47.028;15.514;2022-08-25T03:06:14;3.53;;;3.23;;
10991;SDS011;5549;47.028;15.514;2022-08-25T03:08:45;3.33;;;3.13;;
10991;SDS011;5549;47.028;15.514;2022-08-25T03:11:12;3.00;;;2.80;;
10991;SDS011;5549;47.028;15.514;2022-08-25T03:13:48;3.37;;;3.07;;
10991;SDS011;5549;47.028;15.514;2022-08-25T03:16:19;3.83;;;3.37;;
10991;SDS011;5549;47.028;15.514;2022-08-25T03:18:48;4.13;;;3.73;;
10991;SDS011;5549;47.028;15.514;2022-08-25T03:21:18;3.67;;;3.37;;
10991;SDS011;5549;47.028;15.514;2022-08-25T03:23:48;3.63;;;3.33;;
10991;SDS011;5549;47.028;15.514;2022-08-25T03:26:17;3.73;;;3.43;;
10991;SDS011;5549;47.028;15.514;2022-08-25T03:29:06;3.30;;;3.10;;
10991;SDS011;5549;47.028;15.514;2022-08-25T03:31:35;3.00;;;2.80;;
10991;SDS011;5549;47.028;15.514;2022-08-25T03:34:04;3.47;;;3.17;;
10991;SDS011;5549;47.028;15.514;2022-08-25T03:36:32;3.50;;;3.20;;
10991;SDS011;5549;47.028;15.514;2022-08-25T03:38:59;4.13;;;3.73;;
10991;SDS011;5549;47.028;15.514;2022-08-25T03:41:31;3.33;;;3.07;;
10991;SDS011;5549;47.028;15.514;2022-08-25T03:44:01;4.07;;;3.77;;
10991;SDS011;5549;47.028;15.514;2022-08-25T03:46:33;5.00;;;3.27;;
10991;SDS011;5549;47.028;15.514;2022-08-25T03:49:05;3.77;;;3.47;;
10991;SDS011;5549;47.028;15.514;2022-08-25T03:51:36;3.27;;;3.07;;
10991;SDS011;5549;47.028;15.514;2022-08-25T03:54:09;3.70;;;3.40;;
10991;SDS011;5549;47.028;15.514;2022-08-25T03:56:37;4.00;;;3.53;;
10991;SDS011;5549;47.028;15.514;2022-08-25T03:59:05;3.47;;;3.17;;
10991;SDS011;5549;47.028;15.514;2022-08-25T04:01:39;4.47;;;3.70;;
10991;SDS011;5549;47.028;15.514;2022-08-25T04:04:11;3.33;;;3.03;;
10991;SDS011;5549;47.028;15.514;2022-08-25T04:06:42;3.93;;;3.63;;
10991;SDS011;5549;47.028;15.514;2022-08-25T04:09:14;3.77;;;3.47;;
10991;SDS011;5549;47.028;15.514;2022-08-25T04:11:43;4.60;;;3.60;;
10991;SDS011;5549;47.028;15.514;2022-08-25T04:14:13;4.27;;;3.87;;
10991;SDS011;5549;47.028;15.514;2022-08-25T04:16:43;4.87;;;4.07;;
10991;SDS011;5549;47.028;15.514;2022-08-25T04:19:11;4.40;;;4.00;;
10991;SDS011;5549;47.028;15.514;2022-08-25T04:21:39;3.53;;;3.23;;
10991;SDS011;5549;47.028;15.514;2022-08-25T04:24:10;4.50;;;3.53;;
10991;SDS011;5549;47.028;15.514;2022-08-25T04:26:42;4.60;;;4.20;;
10991;SDS011;5549;47.028;15.514;2022-08-25T04:29:15;4.47;;;4.07;;
10991;SDS011;5549;47.028;15.514;2022-08-25T04:31:48;3.83;;;3.50;;
10991;SDS011;5549;47.028;15.514;2022-08-25T04:34:17;4.10;;;3.73;;
10991;SDS011;5549;47.028;15.514;2022-08-25T04:36:49;4.07;;;3.77;;
10991;SDS011;5549;47.028;15.514;2022-08-25T04:39:19;4.83;;;4.27;;
10991;SDS011;5549;47.028;15.514;2022-08-25T04:41:49;4.37;;;3.97;;
10991;SDS011;5549;47.028;15.514;2022-08-25T04:44:20;4.50;;;4.10;;
10991;SDS011;5549;47.028;15.514;2022-08-25T04:46:49;4.30;;;3.97;;
10991;SDS011;5549;47.028;15.514;2022-08-25T04:49:16;4.47;;;4.07;;
10991;SDS011;5549;47.028;15.514;2022-08-25T04:51:44;3.97;;;3.67;;
10991;SDS011;5549;47.028;15.514;2022-08-25T04:54:14;3.93;;;3.63;;
10991;SDS011;5549;47.028;15.514;2022-08-25T04:56:46;4.73;;;4.33;;
10991;SDS011;5549;47.028;15.514;2022-08-25T04:59:17;5.47;;;4.27;;
10991;SDS011;5549;47.028;15.514;2022-08-25T05:01:45;3.83;;;3.53;;
10991;SDS011;5549;47.028;15.514;2022-08-25T05:04:19;7.07;;;4.23;;
10991;SDS011;5549;47.028;15.514;2022-08-25T05:06:50;4.27;;;3.87;;
10991;SDS011;5549;47.028;15.514;2022-08-25T05:09:21;4.63;;;3.73;;
10991;SDS011;5549;47.028;15.514;2022-08-25T05:11:49;3.77;;;3.47;;
10991;SDS011;5549;47.028;15.514;2022-08-25T05:14:16;4.77;;;3.83;;
10991;SDS011;5549;47.028;15.514;2022-08-25T05:16:48;4.17;;;3.77;;
10991;SDS011;5549;47.028;15.514;2022-08-25T05:19:17;4.23;;;3.93;;
10991;SDS011;5549;47.028;15.514;2022-08-25T05:21:45;3.50;;;3.30;;
10991;SDS011;5549;47.028;15.514;2022-08-25T05:24:13;4.17;;;3.57;;
10991;SDS011;5549;47.028;15.514;2022-08-25T05:26:43;4.27;;;3.90;;
10991;SDS011;5549;47.028;15.514;2022-08-25T05:29:11;3.90;;;3.60;;
10991;SDS011;5549;47.028;15.514;2022-08-25T05:31:40;3.60;;;3.30;;
10991;SDS011;5549;47.028;15.514;2022-08-25T05:34:10;4.10;;;3.50;;
10991;SDS011;5549;47.028;15.514;2022-08-25T05:36:41;4.43;;;3.60;;
10991;SDS011;5549;47.028;15.514;2022-08-25T05:39:09;3.83;;;2.93;;
10991;SDS011;5549;47.028;15.514;2022-08-25T05:41:39;3.83;;;3.50;;
10991;SDS011;5549;47.028;15.514;2022-08-25T05:44:09;3.83;;;3.53;;
10991;SDS011;5549;47.028;15.514;2022-08-25T05:46:37;3.87;;;3.57;;
10991;SDS011;5549;47.028;15.514;2022-08-25T05:49:05;3.80;;;3.50;;
10991;SDS011;5549;47.028;15.514;2022-08-25T05:51:35;4.47;;;3.83;;
10991;SDS011;5549;47.028;15.514;2022-08-25T05:54:04;3.47;;;3.17;;
10991;SDS011;5549;47.028;15.514;2022-08-25T05:56:31;3.93;;;3.20;;
10991;SDS011;5549;47.028;15.514;2022-08-25T05:59:01;3.73;;;3.27;;
10991;SDS011;5549;47.028;15.514;2022-08-25T06:01:32;3.30;;;3.10;;
10991;SDS011;5549;47.028;15.514;2022-08-25T06:04:19;3.37;;;3.07;;
10991;SDS011;5549;47.028;15.514;2022-08-25T06:06:49;3.23;;;3.00;;
10991;SDS011;5549;47.028;15.514;2022-08-25T06:09:22;3.20;;;3.00;;
10991;SDS011;5549;47.028;15.514;2022-08-25T06:11:50;3.33;;;3.13;;
10991;SDS011;5549;47.028;15.514;2022-08-25T06:14:20;4.60;;;3.17;;
10991;SDS011;5549;47.028;15.514;2022-08-25T06:16:52;4.70;;;3.10;;
10991;SDS011;5549;47.028;15.514;2022-08-25T06:19:22;3.60;;;3.30;;
10991;SDS011;5549;47.028;15.514;2022-08-25T06:21:51;4.47;;;3.70;;
10991;SDS011;5549;47.028;15.514;2022-08-25T06:24:22;3.77;;;3.47;;
10991;SDS011;5549;47.028;15.514;2022-08-25T06:26:54;3.40;;;3.10;;
10991;SDS011;5549;47.028;15.514;2022-08-25T06:29:24;3.53;;;3.10;;
10991;SDS011;5549;47.028;15.514;2022-08-25T06:31:54;3.37;;;3.13;;
10991;SDS011;5549;47.028;15.514;2022-08-25T06:34:24;4.20;;;3.80;;
10991;SDS011;5549;47.028;15.514;2022-08-25T06:36:54;4.07;;;3.60;;
10991;SDS011;5549;47.028;15.514;2022-08-25T06:39:23;4.47;;;3.10;;
10991;SDS011;5549;47.028;15.514;2022-08-25T06:41:51;4.90;;;3.30;;
10991;SDS011;5549;47.028;15.514;2022-08-25T06:44:19;5.27;;;3.30;;
10991;SDS011;5549;47.028;15.514;2022-08-25T06:46:47;3.27;;;3.07;;
10991;SDS011;5549;47.028;15.514;2022-08-25T06:49:17;4.03;;;3.53;;
10991;SDS011;5549;47.028;15.514;2022-08-25T06:51:45;3.97;;;3.60;;
10991;SDS011;5549;47.028;15.514;2022-08-25T06:54:12;3.70;;;3.37;;
10991;SDS011;5549;47.028;15.514;2022-08-25T06:56:41;3.93;;;3.53;;
10991;SDS011;5549;47.028;15.514;2022-08-25T06:59:11;3.70;;;3.40;;
10991;SDS011;5549;47.028;15.514;2022-08-25T07:01:41;3.90;;;3.50;;
10991;SDS011;5549;47.028;15.514;2022-08-25T07:04:09;4.80;;;3.90;;
10991;SDS011;5549;47.028;15.514;2022-08-25T07:06:39;5.23;;;3.43;;
10991;SDS011;5549;47.028;15.514;2022-08-25T07:09:08;4.33;;;3.67;;
10991;SDS011;5549;47.028;15.514;2022-08-25T07:11:39;4.43;;;4.07;;
10991;SDS011;5549;47.028;15.514;2022-08-25T07:14:11;3.97;;;3.67;;
10991;SDS011;5549;47.028;15.514;2022-08-25T07:16:40;4.07;;;3.77;;
10991;SDS011;5549;47.028;15.514;2022-08-25T07:19:09;4.87;;;3.83;;
10991;SDS011;5549;47.028;15.514;2022-08-25T07:21:40;7.63;;;4.20;;
10991;SDS011;5549;47.028;15.514;2022-08-25T07:24:11;4.20;;;3.87;;
10991;SDS011;5549;47.028;15.514;2022-08-25T07:26:43;4.47;;;4.07;;
10991;SDS011;5549;47.028;15.514;2022-08-25T07:29:15;5.23;;;4.37;;
10991;SDS011;5549;47.028;15.514;2022-08-25T07:31:45;5.53;;;4.47;;
10991;SDS011;5549;47.028;15.514;2022-08-25T07:34:13;4.87;;;4.33;;
10991;SDS011;5549;47.028;15.514;2022-08-25T07:36:59;4.77;;;4.03;;
10991;SDS011;5549;47.028;15.514;2022-08-25T07:39:32;5.33;;;4.50;;
10991;SDS011;5549;47.028;15.514;2022-08-25T07:42:04;5.03;;;4.57;;
10991;SDS011;5549;47.028;15.514;2022-08-25T07:44:33;5.07;;;4.57;;
10991;SDS011;5549;47.028;15.514;2022-08-25T07:47:02;4.80;;;4.40;;
10991;SDS011;5549;47.028;15.514;2022-08-25T07:49:32;4.97;;;4.57;;
10991;SDS011;5549;47.028;15.514;2022-08-25T07:52:00;4.57;;;4.17;;
10991;SDS011;5549;47.028;15.514;2022-08-25T07:54:29;6.33;;;4.70;;
10991;SDS011;5549;47.028;15.514;2022-08-25T07:56:57;6.00;;;4.60;;
10991;SDS011;5549;47.028;15.514;2022-08-25T07:59:26;5.07;;;4.13;;
10991;SDS011;5549;47.028;15.514;2022-08-25T08:01:54;4.37;;;4.07;;
10991;SDS011;5549;47.028;15.514;2022-08-25T08:04:21;5.30;;;4.80;;
10991;SDS011;5549;47.028;15.514;2022-08-25T08:06:51;5.73;;;4.77;;
10991;SDS011;5549;47.028;15.514;2022-08-25T08:09:22;5.43;;;4.53;;
10991;SDS011;5549;47.028;15.514;2022-08-25T08:11:52;4.97;;;4.50;;
10991;SDS011;5549;47.028;15.514;2022-08-25T08:14:22;4.67;;;4.27;;
10991;SDS011;5549;47.028;15.514;2022-08-25T08:16:54;5.47;;;4.87;;
10991;SDS011;5549;47.028;15.514;2022-08-25T08:19:22;5.23;;;4.70;;
10991;SDS011;5549;47.028;15.514;2022-08-25T08:21:49;5.23;;;4.73;;
10991;SDS011;5549;47.028;15.514;2022-08-25T08:24:19;6.70;;;4.90;;
10991;SDS011;5549;47.028;15.514;2022-08-25T08:26:47;4.73;;;4.30;;
10991;SDS011;5549;47.028;15.514;2022-08-25T08:29:15;5.40;;;4.90;;
10991;SDS011;5549;47.028;15.514;2022-08-25T08:31:47;5.87;;;4.30;;
10991;SDS011;5549;47.028;15.514;2022-08-25T08:34:17;6.37;;;4.77;;
10991;SDS011;5549;47.028;15.514;2022-08-25T08:36:45;5.33;;;4.83;;
10991;SDS011;5549;47.028;15.514;2022-08-25T08:39:12;8.30;;;5.60;;
10991;SDS011;5549;47.028;15.514;2022-08-25T08:41:45;5.87;;;4.87;;
10991;SDS011;5549;47.028;15.514;2022-08-25T08:44:49;4.20;;;3.90;;
10991;SDS011;5549;47.028;15.514;2022-08-25T08:47:36;5.70;;;5.10;;
10991;SDS011;5549;47.028;15.514;2022-08-25T08:50:24;4.73;;;4.33;;
10991;SDS011;5549;47.028;15.514;2022-08-25T08:53:02;4.67;;;4.20;;
10991;SDS011;5549;47.028;15.514;2022-08-25T08:55:38;5.40;;;4.30;;
10991;SDS011;5549;47.028;15.514;2022-08-25T08:58:09;4.57;;;4.17;;
10991;SDS011;5549;47.028;15.514;2022-08-25T09:00:45;5.73;;;4.90;;
10991;SDS011;5549;47.028;15.514;2022-08-25T09:03:28;7.43;;;4.80;;
10991;SDS011;5549;47.028;15.514;2022-08-25T09:06:04;5.40;;;4.50;;
10991;SDS011;5549;47.028;15.514;2022-08-25T09:08:39;5.20;;;4.70;;
10991;SDS011;5549;47.028;15.514;2022-08-25T09:11:14;5.07;;;4.57;;
10991;SDS011;5549;47.028;15.514;2022-08-25T09:13:59;5.80;;;4.53;;
10991;SDS011;5549;47.028;15.514;2022-08-25T09:16:39;7.53;;;4.70;;
10991;SDS011;5549;47.028;15.514;2022-08-25T09:19:27;5.80;;;4.57;;
10991;SDS011;5549;47.028;15.514;2022-08-25T09:22:14;5.50;;;4.57;;
10991;SDS011;5549;47.028;15.514;2022-08-25T09:24:56;7.53;;;5.33;;
10991;SDS011;5549;47.028;15.514;2022-08-25T09:27:36;6.93;;;4.87;;
10991;SDS011;5549;47.028;15.514;2022-08-25T09:30:15;5.87;;;4.80;;
10991;SDS011;5549;47.028;15.514;2022-08-25T09:32:48;6.37;;;4.53;;
10991;SDS011;5549;47.028;15.514;2022-08-25T09:35:30;6.37;;;4.83;;
10991;SDS011;5549;47.028;15.514;2022-08-25T09:38:09;6.37;;;4.77;;
10991;SDS011;5549;47.028;15.514;2022-08-25T09:40:43;6.03;;;4.77;;
10991;SDS011;5549;47.028;15.514;2022-08-25T09:43:18;5.33;;;4.83;;
10991;SDS011;5549;47.028;15.514;2022-08-25T09:45:54;9.03;;;4.67;;
10991;SDS011;5549;47.028;15.514;2022-08-25T09:48:27;4.93;;;4.43;;
10991;SDS011;5549;47.028;15.514;2022-08-25T09:51:09;7.63;;;5.33;;
10991;SDS011;5549;47.028;15.514;2022-08-25T09:53:53;6.73;;;5.10;;
10991;SDS011;5549;47.028;15.514;2022-08-25T09:56:25;5.77;;;4.80;;
10991;SDS011;5549;47.028;15.514;2022-08-25T09:59:16;5.93;;;5.33;;
10991;SDS011;5549;47.028;15.514;2022-08-25T10:01:47;6.43;;;5.27;;
10991;SDS011;5549;47.028;15.514;2022-08-25T10:04:24;7.43;;;5.60;;
10991;SDS011;5549;47.028;15.514;2022-08-25T10:06:52;5.87;;;5.37;;
10991;SDS011;5549;47.028;15.514;2022-08-25T10:09:24;7.40;;;5.80;;
10991;SDS011;5549;47.028;15.514;2022-08-25T10:12:00;9.43;;;6.40;;
10991;SDS011;5549;47.028;15.514;2022-08-25T10:14:32;7.80;;;6.00;;
10991;SDS011;5549;47.028;15.514;2022-08-25T10:17:11;8.30;;;6.00;;
10991;SDS011;5549;47.028;15.514;2022-08-25T10:19:51;6.77;;;5.97;;
10991;SDS011;5549;47.028;15.514;2022-08-25T10:22:40;9.47;;;6.30;;
10991;SDS011;5549;47.028;15.514;2022-08-25T10:25:13;8.43;;;5.50;;
10991;SDS011;5549;47.028;15.514;2022-08-25T10:27:47;10.80;;;5.60;;
10991;SDS011;5549;47.028;15.514;2022-08-25T10:30:29;6.77;;;5.70;;
10991;SDS011;5549;47.028;15.514;2022-08-25T10:33:09;7.40;;;5.60;;
10991;SDS011;5549;47.028;15.514;2022-08-25T10:35:53;8.83;;;6.10;;
10991;SDS011;5549;47.028;15.514;2022-08-25T10:38:32;8.33;;;5.77;;
10991;SDS011;5549;47.028;15.514;2022-08-25T10:41:10;6.87;;;5.17;;
10991;SDS011;5549;47.028;15.514;2022-08-25T10:44:17;5.10;;;4.60;;
10991;SDS011;5549;47.028;15.514;2022-08-25T10:47:22;4.83;;;4.37;;
10991;SDS011;5549;47.028;15.514;2022-08-25T10:50:13;5.90;;;4.70;;
10991;SDS011;5549;47.028;15.514;2022-08-25T10:52:58;6.43;;;4.93;;
10991;SDS011;5549;47.028;15.514;2022-08-25T10:55:51;6.73;;;4.67;;
10991;SDS011;5549;47.028;15.514;2022-08-25T10:58:41;5.23;;;4.30;;
10991;SDS011;5549;47.028;15.514;2022-08-25T11:01:39;5.37;;;4.60;;
10991;SDS011;5549;47.028;15.514;2022-08-25T11:04:25;5.20;;;4.40;;
10991;SDS011;5549;47.028;15.514;2022-08-25T11:07:02;5.17;;;4.67;;
10991;SDS011;5549;47.028;15.514;2022-08-25T11:09:35;12.30;;;5.00;;
10991;SDS011;5549;47.028;15.514;2022-08-25T11:12:09;4.70;;;4.10;;
10991;SDS011;5549;47.028;15.514;2022-08-25T11:14:46;5.67;;;4.70;;
10991;SDS011;5549;47.028;15.514;2022-08-25T11:17:23;5.33;;;4.83;;
10991;SDS011;5549;47.028;15.514;2022-08-25T11:19:56;8.03;;;5.10;;
10991;SDS011;5549;47.028;15.514;2022-08-25T11:22:34;5.30;;;4.80;;
10991;SDS011;5549;47.028;15.514;2022-08-25T11:25:10;9.10;;;5.23;;
10991;SDS011;5549;47.028;15.514;2022-08-25T11:27:45;4.70;;;4.30;;
10991;SDS011;5549;47.028;15.514;2022-08-25T11:30:22;5.03;;;4.57;;
10991;SDS011;5549;47.028;15.514;2022-08-25T11:32:51;6.90;;;4.73;;
10991;SDS011;5549;47.028;15.514;2022-08-25T11:35:25;4.90;;;4.30;;
10991;SDS011;5549;47.028;15.514;2022-08-25T11:38:04;4.40;;;4.00;;
10991;SDS011;5549;47.028;15.514;2022-08-25T11:40:54;5.00;;;4.57;;
10991;SDS011;5549;47.028;15.514;2022-08-25T11:43:35;5.77;;;4.23;;
10991;SDS011;5549;47.028;15.514;2022-08-25T11:46:35;6.03;;;4.80;;
10991;SDS011;5549;47.028;15.514;2022-08-25T11:49:26;4.30;;;3.93;;
10991;SDS011;5549;47.028;15.514;2022-08-25T11:55:19;5.37;;;4.20;;
10991;SDS011;5549;47.028;15.514;2022-08-25T11:58:21;6.80;;;4.60;;
10991;SDS011;5549;47.028;15.514;2022-08-25T12:01:02;5.30;;;4.80;;
10991;SDS011;5549;47.028;15.514;2022-08-25T12:03:51;5.13;;;4.47;;
10991;SDS011;5549;47.028;15.514;2022-08-25T12:12:55;6.57;;;4.90;;
10991;SDS011;5549;47.028;15.514;2022-08-25T12:15:56;4.40;;;4.00;;
10991;SDS011;5549;47.028;15.514;2022-08-25T12:18:39;5.50;;;4.40;;
10991;SDS011;5549;47.028;15.514;2022-08-25T12:21:14;6.03;;;4.47;;
10991;SDS011;5549;47.028;15.514;2022-08-25T12:24:05;5.20;;;4.27;;
10991;SDS011;5549;47.028;15.514;2022-08-25T12:26:41;5.03;;;4.50;;
10991;SDS011;5549;47.028;15.514;2022-08-25T12:29:19;4.33;;;3.93;;
10991;SDS011;5549;47.028;15.514;2022-08-25T12:32:09;4.60;;;4.30;;
10991;SDS011;5549;47.028;15.514;2022-08-25T12:35:08;5.60;;;4.67;;
10991;SDS011;5549;47.028;15.514;2022-08-25T12:37:56;4.70;;;4.27;;
10991;SDS011;5549;47.028;15.514;2022-08-25T12:40:33;6.43;;;4.70;;
10991;SDS011;5549;47.028;15.514;2022-08-25T12:43:08;6.20;;;4.40;;
10991;SDS011;5549;47.028;15.514;2022-08-25T12:45:43;5.37;;;4.57;;
10991;SDS011;5549;47.028;15.514;2022-08-25T12:51:47;4.43;;;4.03;;
10991;SDS011;5549;47.028;15.514;2022-08-25T12:54:23;5.40;;;4.13;;
10991;SDS011;5549;47.028;15.514;2022-08-25T12:57:04;4.97;;;4.47;;
10991;SDS011;5549;47.028;15.514;2022-08-25T13:00:13;4.77;;;4.37;;
10991;SDS011;5549;47.028;15.514;2022-08-25T13:02:57;8.43;;;4.60;;
10991;SDS011;5549;47.028;15.514;2022-08-25T13:12:12;5.87;;;4.70;;
10991;SDS011;5549;47.028;15.514;2022-08-25T13:14:51;4.90;;;4.40;;
10991;SDS011;5549;47.028;15.514;2022-08-25T13:17:24;7.03;;;4.43;;
10991;SDS011;5549;47.028;15.514;2022-08-25T13:22:45;6.03;;;4.50;;
10991;SDS011;5549;47.028;15.514;2022-08-25T13:25:17;6.20;;;4.87;;
10991;SDS011;5549;47.028;15.514;2022-08-25T13:27:52;6.97;;;4.30;;
10991;SDS011;5549;47.028;15.514;2022-08-25T13:30:23;7.23;;;4.67;;
10991;SDS011;5549;47.028;15.514;2022-08-25T13:32:54;4.80;;;4.30;;
10991;SDS011;5549;47.028;15.514;2022-08-25T13:35:25;6.13;;;4.57;;
10991;SDS011;5549;47.028;15.514;2022-08-25T13:38:11;4.40;;;4.00;;
10991;SDS011;5549;47.028;15.514;2022-08-25T13:40:38;5.00;;;4.50;;
10991;SDS011;5549;47.028;15.514;2022-08-25T13:43:09;4.70;;;4.10;;
10991;SDS011;5549;47.028;15.514;2022-08-25T13:45:39;5.07;;;4.57;;
10991;SDS011;5549;47.028;15.514;2022-08-25T13:48:13;6.07;;;4.60;;
10991;SDS011;5549;47.028;15.514;2022-08-25T13:51:05;6.20;;;4.00;;
10991;SDS011;5549;47.028;15.514;2022-08-25T13:53:46;4.97;;;4.30;;
10991;SDS011;5549;47.028;15.514;2022-08-25T13:56:28;4.57;;;4.17;;
10991;SDS011;5549;47.028;15.514;2022-08-25T13:59:01;5.20;;;4.03;;
10991;SDS011;5549;47.028;15.514;2022-08-25T14:01:32;4.93;;;4.07;;
10991;SDS011;5549;47.028;15.514;2022-08-25T14:04:25;5.93;;;4.43;;
10991;SDS011;5549;47.028;15.514;2022-08-25T14:09:57;5.73;;;4.17;;
10991;SDS011;5549;47.028;15.514;2022-08-25T14:12:29;5.03;;;4.17;;
10991;SDS011;5549;47.028;15.514;2022-08-25T14:15:08;5.33;;;4.17;;
10991;SDS011;5549;47.028;15.514;2022-08-25T14:18:00;5.30;;;4.30;;
10991;SDS011;5549;47.028;15.514;2022-08-25T14:20:32;7.13;;;4.40;;
10991;SDS011;5549;47.028;15.514;2022-08-25T14:23:03;4.20;;;3.80;;
10991;SDS011;5549;47.028;15.514;2022-08-25T14:25:35;3.90;;;3.60;;
10991;SDS011;5549;47.028;15.514;2022-08-25T14:28:07;4.53;;;4.07;;
10991;SDS011;5549;47.028;15.514;2022-08-25T14:30:42;4.47;;;4.00;;
10991;SDS011;5549;47.028;15.514;2022-08-25T14:33:15;4.30;;;3.90;;
10991;SDS011;5549;47.028;15.514;2022-08-25T14:35:45;3.93;;;3.63;;
10991;SDS011;5549;47.028;15.514;2022-08-25T14:38:15;4.20;;;3.80;;
10991;SDS011;5549;47.028;15.514;2022-08-25T14:40:44;5.67;;;4.17;;
10991;SDS011;5549;47.028;15.514;2022-08-25T14:43:12;4.10;;;3.50;;
10991;SDS011;5549;47.028;15.514;2022-08-25T14:45:43;4.40;;;4.00;;
10991;SDS011;5549;47.028;15.514;2022-08-25T14:48:15;6.43;;;4.20;;
10991;SDS011;5549;47.028;15.514;2022-08-25T14:50:51;6.47;;;4.20;;
10991;SDS011;5549;47.028;15.514;2022-08-25T14:53:21;4.10;;;3.70;;
10991;SDS011;5549;47.028;15.514;2022-08-25T14:55:51;4.53;;;3.67;;
10991;SDS011;5549;47.028;15.514;2022-08-25T14:58:19;4.33;;;3.93;;
10991;SDS011;5549;47.028;15.514;2022-08-25T15:00:49;4.60;;;3.43;;
10991;SDS011;5549;47.028;15.514;2022-08-25T15:03:17;5.23;;;4.00;;
10991;SDS011;5549;47.028;15.514;2022-08-25T15:05:58;4.70;;;4.30;;
10991;SDS011;5549;47.028;15.514;2022-08-25T15:08:27;4.20;;;3.77;;
10991;SDS011;5549;47.028;15.514;2022-08-25T15:11:13;4.33;;;3.77;;
10991;SDS011;5549;47.028;15.514;2022-08-25T15:13:43;7.50;;;3.93;;
10991;SDS011;5549;47.028;15.514;2022-08-25T15:16:16;4.50;;;3.80;;
10991;SDS011;5549;47.028;15.514;2022-08-25T15:18:49;6.17;;;3.70;;
10991;SDS011;5549;47.028;15.514;2022-08-25T15:21:17;7.57;;;4.03;;
10991;SDS011;5549;47.028;15.514;2022-08-25T15:23:45;4.30;;;3.90;;
10991;SDS011;5549;47.028;15.514;2022-08-25T15:26:13;3.63;;;3.33;;
10991;SDS011;5549;47.028;15.514;2022-08-25T15:28:45;6.00;;;3.53;;
10991;SDS011;5549;47.028;15.514;2022-08-25T15:31:16;4.30;;;3.90;;
10991;SDS011;5549;47.028;15.514;2022-08-25T15:33:47;4.80;;;3.90;;
10991;SDS011;5549;47.028;15.514;2022-08-25T15:36:15;5.00;;;4.27;;
10991;SDS011;5549;47.028;15.514;2022-08-25T15:38:48;5.27;;;3.87;;
10991;SDS011;5549;47.028;15.514;2022-08-25T15:41:19;4.17;;;3.77;;
10991;SDS011;5549;47.028;15.514;2022-08-25T15:43:49;5.00;;;3.90;;
10991;SDS011;5549;47.028;15.514;2022-08-25T15:46:21;4.37;;;3.97;;
10991;SDS011;5549;47.028;15.514;2022-08-25T15:48:52;4.50;;;4.10;;
10991;SDS011;5549;47.028;15.514;2022-08-25T15:51:21;8.03;;;4.43;;